sensor_id;sensor_type;location;lat;lon;timestamp;temperature;humidity
360;DHT22;168;48.872;9.226;2023-12-20T00:01:03;8.90;93.00
360;DHT22;168;48.872;9.226;2023-12-20T00:03:30;8.90;93.10
360;DHT22;168;48.872;9.226;2023-12-20T00:05:57;8.90;93.20
360;DHT22;168;48.872;9.226;2023-12-20T00:08:25;9.00;93.20
360;DHT22;168;48.872;9.226;2023-12-20T00:10:52;9.00;93.50
360;DHT22;168;48.872;9.226;2023-12-20T00:13:19;9.00;93.30
360;DHT22;168;48.872;9.226;2023-12-20T00:15:48;9.00;93.40
360;DHT22;168;48.872;9.226;2023-12-20T00:18:15;9.10;93.40
360;DHT22;168;48.872;9.226;2023-12-20T00:20:43;9.10;93.50
360;DHT22;168;48.872;9.226;2023-12-20T00:23:10;9.20;93.50
360;DHT22;168;48.872;9.226;2023-12-20T00:25:37;9.10;94.20
360;DHT22;168;48.872;9.226;2023-12-20T00:28:05;9.10;95.00
360;DHT22;168;48.872;9.226;2023-12-20T00:30:33;9.10;94.80
360;DHT22;168;48.872;9.226;2023-12-20T00:33:02;9.00;95.30
360;DHT22;168;48.872;9.226;2023-12-20T00:35:29;8.90;96.10
360;DHT22;168;48.872;9.226;2023-12-20T00:37:57;8.90;96.90
360;DHT22;168;48.872;9.226;2023-12-20T00:40:25;8.90;97.50
360;DHT22;168;48.872;9.226;2023-12-20T00:42:52;8.90;97.50
360;DHT22;168;48.872;9.226;2023-12-20T00:45:19;8.80;98.00
360;DHT22;168;48.872;9.226;2023-12-20T00:47:47;8.80;97.80
360;DHT22;168;48.872;9.226;2023-12-20T00:50:16;8.90;98.00
360;DHT22;168;48.872;9.226;2023-12-20T00:52:43;8.70;98.00
360;DHT22;168;48.872;9.226;2023-12-20T00:55:10;8.60;98.50
360;DHT22;168;48.872;9.226;2023-12-20T00:57:37;8.60;98.40
360;DHT22;168;48.872;9.226;2023-12-20T01:00:06;8.40;97.90
360;DHT22;168;48.872;9.226;2023-12-20T01:02:35;8.50;98.20
360;DHT22;168;48.872;9.226;2023-12-20T01:05:03;8.40;98.10
360;DHT22;168;48.872;9.226;2023-12-20T01:07:32;8.40;97.60
360;DHT22;168;48.872;9.226;2023-12-20T01:09:59;8.30;98.00
360;DHT22;168;48.872;9.226;2023-12-20T01:12:27;8.20;97.70
360;DHT22;168;48.872;9.226;2023-12-20T01:14:54;7.90;96.00
360;DHT22;168;48.872;9.226;2023-12-20T01:17:21;7.80;95.50
360;DHT22;168;48.872;9.226;2023-12-20T01:19:49;7.80;95.10
360;DHT22;168;48.872;9.226;2023-12-20T01:22:16;7.60;93.50
360;DHT22;168;48.872;9.226;2023-12-20T01:24:44;7.50;91.30
360;DHT22;168;48.872;9.226;2023-12-20T01:27:12;7.50;91.50
360;DHT22;168;48.872;9.226;2023-12-20T01:29:39;7.40;90.30
360;DHT22;168;48.872;9.226;2023-12-20T01:32:07;7.40;90.40
360;DHT22;168;48.872;9.226;2023-12-20T01:34:34;7.30;88.70
360;DHT22;168;48.872;9.226;2023-12-20T01:37:02;7.30;88.20
360;DHT22;168;48.872;9.226;2023-12-20T01:39:30;7.40;87.90
360;DHT22;168;48.872;9.226;2023-12-20T01:41:58;7.40;88.80
360;DHT22;168;48.872;9.226;2023-12-20T01:44:26;7.40;87.70
360;DHT22;168;48.872;9.226;2023-12-20T01:46:53;7.30;86.50
360;DHT22;168;48.872;9.226;2023-12-20T01:49:21;7.30;87.00
360;DHT22;168;48.872;9.226;2023-12-20T01:51:49;7.40;88.30
360;DHT22;168;48.872;9.226;2023-12-20T01:54:17;7.40;87.80
360;DHT22;168;48.872;9.226;2023-12-20T01:56:46;7.30;86.50
360;DHT22;168;48.872;9.226;2023-12-20T01:59:15;7.20;85.00
360;DHT22;168;48.872;9.226;2023-12-20T02:01:42;7.30;85.00
360;DHT22;168;48.872;9.226;2023-12-20T02:04:10;7.20;83.50
360;DHT22;168;48.872;9.226;2023-12-20T02:06:38;7.20;82.80
360;DHT22;168;48.872;9.226;2023-12-20T02:09:07;7.20;82.40
360;DHT22;168;48.872;9.226;2023-12-20T02:11:34;7.30;81.30
360;DHT22;168;48.872;9.226;2023-12-20T02:14:03;7.30;80.00
360;DHT22;168;48.872;9.226;2023-12-20T02:16:32;7.40;79.30
360;DHT22;168;48.872;9.226;2023-12-20T02:18:59;7.40;78.80
360;DHT22;168;48.872;9.226;2023-12-20T02:21:33;7.50;80.30
360;DHT22;168;48.872;9.226;2023-12-20T02:24:01;7.50;81.20
360;DHT22;168;48.872;9.226;2023-12-20T02:26:28;7.60;81.70
360;DHT22;168;48.872;9.226;2023-12-20T02:28:55;7.60;82.20
360;DHT22;168;48.872;9.226;2023-12-20T02:31:23;7.60;82.20
360;DHT22;168;48.872;9.226;2023-12-20T02:33:50;7.60;82.20
360;DHT22;168;48.872;9.226;2023-12-20T02:36:18;7.60;82.20
360;DHT22;168;48.872;9.226;2023-12-20T02:38:46;7.60;82.40
360;DHT22;168;48.872;9.226;2023-12-20T02:41:14;7.80;85.10
360;DHT22;168;48.872;9.226;2023-12-20T02:43:42;7.90;89.10
360;DHT22;168;48.872;9.226;2023-12-20T02:46:10;7.80;88.80
360;DHT22;168;48.872;9.226;2023-12-20T02:48:37;7.80;90.70
360;DHT22;168;48.872;9.226;2023-12-20T02:51:05;7.80;90.60
360;DHT22;168;48.872;9.226;2023-12-20T02:53:32;7.80;91.20
360;DHT22;168;48.872;9.226;2023-12-20T02:56:01;7.60;91.40
360;DHT22;168;48.872;9.226;2023-12-20T02:58:28;7.50;89.80
360;DHT22;168;48.872;9.226;2023-12-20T03:00:55;7.40;89.40
360;DHT22;168;48.872;9.226;2023-12-20T03:03:23;7.20;86.90
360;DHT22;168;48.872;9.226;2023-12-20T03:05:51;7.20;87.00
360;DHT22;168;48.872;9.226;2023-12-20T03:08:18;7.20;87.50
360;DHT22;168;48.872;9.226;2023-12-20T03:10:46;7.00;88.60
360;DHT22;168;48.872;9.226;2023-12-20T03:13:14;6.90;86.30
360;DHT22;168;48.872;9.226;2023-12-20T03:15:42;6.80;85.80
360;DHT22;168;48.872;9.226;2023-12-20T03:18:09;6.80;85.20
360;DHT22;168;48.872;9.226;2023-12-20T03:20:36;6.80;85.30
360;DHT22;168;48.872;9.226;2023-12-20T03:23:04;6.80;86.30
360;DHT22;168;48.872;9.226;2023-12-20T03:25:31;6.70;86.00
360;DHT22;168;48.872;9.226;2023-12-20T03:27:59;6.60;84.30
360;DHT22;168;48.872;9.226;2023-12-20T03:30:28;6.50;84.80
360;DHT22;168;48.872;9.226;2023-12-20T03:32:55;6.50;82.80
360;DHT22;168;48.872;9.226;2023-12-20T03:35:22;6.60;84.40
360;DHT22;168;48.872;9.226;2023-12-20T03:37:49;6.60;84.80
360;DHT22;168;48.872;9.226;2023-12-20T03:40:17;6.60;85.50
360;DHT22;168;48.872;9.226;2023-12-20T03:42:44;6.50;86.50
360;DHT22;168;48.872;9.226;2023-12-20T03:45:11;6.50;84.70
360;DHT22;168;48.872;9.226;2023-12-20T03:47:40;6.50;84.60
360;DHT22;168;48.872;9.226;2023-12-20T03:50:08;6.50;84.80
360;DHT22;168;48.872;9.226;2023-12-20T03:52:35;6.40;84.40
360;DHT22;168;48.872;9.226;2023-12-20T03:55:03;6.40;84.10
360;DHT22;168;48.872;9.226;2023-12-20T03:57:31;6.50;83.30
360;DHT22;168;48.872;9.226;2023-12-20T03:59:58;6.50;84.90
360;DHT22;168;48.872;9.226;2023-12-20T04:02:25;6.50;84.10
360;DHT22;168;48.872;9.226;2023-12-20T04:04:54;6.50;84.50
360;DHT22;168;48.872;9.226;2023-12-20T04:07:21;6.50;84.10
360;DHT22;168;48.872;9.226;2023-12-20T04:09:48;6.40;84.70
360;DHT22;168;48.872;9.226;2023-12-20T04:12:16;6.40;83.50
360;DHT22;168;48.872;9.226;2023-12-20T04:14:43;6.50;84.60
360;DHT22;168;48.872;9.226;2023-12-20T04:17:10;6.50;83.80
360;DHT22;168;48.872;9.226;2023-12-20T04:19:38;6.50;84.30
360;DHT22;168;48.872;9.226;2023-12-20T04:22:07;6.40;84.30
360;DHT22;168;48.872;9.226;2023-12-20T04:24:34;6.40;83.80
360;DHT22;168;48.872;9.226;2023-12-20T04:27:02;6.40;83.80
360;DHT22;168;48.872;9.226;2023-12-20T04:29:29;6.40;83.70
360;DHT22;168;48.872;9.226;2023-12-20T04:31:56;6.40;84.30
360;DHT22;168;48.872;9.226;2023-12-20T04:34:24;6.50;85.20
360;DHT22;168;48.872;9.226;2023-12-20T04:36:52;6.50;85.40
360;DHT22;168;48.872;9.226;2023-12-20T04:39:20;6.50;84.80
360;DHT22;168;48.872;9.226;2023-12-20T04:41:48;6.50;85.30
360;DHT22;168;48.872;9.226;2023-12-20T04:44:16;6.50;86.40
360;DHT22;168;48.872;9.226;2023-12-20T04:46:43;6.50;86.50
360;DHT22;168;48.872;9.226;2023-12-20T04:49:10;6.40;86.10
360;DHT22;168;48.872;9.226;2023-12-20T04:51:38;6.50;85.40
360;DHT22;168;48.872;9.226;2023-12-20T04:54:05;6.50;87.10
360;DHT22;168;48.872;9.226;2023-12-20T04:56:34;6.50;87.30
360;DHT22;168;48.872;9.226;2023-12-20T04:59:01;6.50;87.20
360;DHT22;168;48.872;9.226;2023-12-20T05:01:28;6.60;88.00
360;DHT22;168;48.872;9.226;2023-12-20T05:03:56;6.70;88.80
360;DHT22;168;48.872;9.226;2023-12-20T05:06:23;6.60;89.10
360;DHT22;168;48.872;9.226;2023-12-20T05:08:50;6.60;88.80
360;DHT22;168;48.872;9.226;2023-12-20T05:11:18;6.70;88.10
360;DHT22;168;48.872;9.226;2023-12-20T05:13:46;6.60;87.20
360;DHT22;168;48.872;9.226;2023-12-20T05:16:13;6.70;88.20
360;DHT22;168;48.872;9.226;2023-12-20T05:18:44;6.70;90.00
360;DHT22;168;48.872;9.226;2023-12-20T05:21:12;6.70;89.40
360;DHT22;168;48.872;9.226;2023-12-20T05:23:39;6.70;88.40
360;DHT22;168;48.872;9.226;2023-12-20T05:26:06;6.70;87.60
360;DHT22;168;48.872;9.226;2023-12-20T05:28:34;6.70;88.30
360;DHT22;168;48.872;9.226;2023-12-20T05:31:02;6.60;86.70
360;DHT22;168;48.872;9.226;2023-12-20T05:33:30;6.60;85.80
360;DHT22;168;48.872;9.226;2023-12-20T05:35:57;6.70;85.60
360;DHT22;168;48.872;9.226;2023-12-20T05:38:25;6.60;83.90
360;DHT22;168;48.872;9.226;2023-12-20T05:40:52;6.60;83.40
360;DHT22;168;48.872;9.226;2023-12-20T05:43:19;6.60;82.20
360;DHT22;168;48.872;9.226;2023-12-20T05:45:47;6.60;81.50
360;DHT22;168;48.872;9.226;2023-12-20T05:48:15;6.60;82.10
360;DHT22;168;48.872;9.226;2023-12-20T05:50:43;6.60;81.40
360;DHT22;168;48.872;9.226;2023-12-20T05:53:10;6.50;80.90
360;DHT22;168;48.872;9.226;2023-12-20T05:55:37;6.60;80.70
360;DHT22;168;48.872;9.226;2023-12-20T05:58:04;6.60;80.80
360;DHT22;168;48.872;9.226;2023-12-20T06:00:32;6.60;81.20
360;DHT22;168;48.872;9.226;2023-12-20T06:02:59;6.60;80.60
360;DHT22;168;48.872;9.226;2023-12-20T06:05:28;6.60;81.00
360;DHT22;168;48.872;9.226;2023-12-20T06:07:55;6.60;80.80
360;DHT22;168;48.872;9.226;2023-12-20T06:10:23;6.60;80.90
360;DHT22;168;48.872;9.226;2023-12-20T06:12:50;6.60;79.90
360;DHT22;168;48.872;9.226;2023-12-20T06:15:18;6.60;80.50
360;DHT22;168;48.872;9.226;2023-12-20T06:17:45;6.70;79.80
360;DHT22;168;48.872;9.226;2023-12-20T06:20:13;6.80;80.80
360;DHT22;168;48.872;9.226;2023-12-20T06:22:41;6.80;81.80
360;DHT22;168;48.872;9.226;2023-12-20T06:25:09;6.80;81.50
360;DHT22;168;48.872;9.226;2023-12-20T06:27:36;6.80;80.60
360;DHT22;168;48.872;9.226;2023-12-20T06:30:04;6.90;80.70
360;DHT22;168;48.872;9.226;2023-12-20T06:32:32;6.90;81.00
360;DHT22;168;48.872;9.226;2023-12-20T06:35:00;7.00;80.40
360;DHT22;168;48.872;9.226;2023-12-20T06:37:27;7.10;83.20
360;DHT22;168;48.872;9.226;2023-12-20T06:39:56;7.10;82.90
360;DHT22;168;48.872;9.226;2023-12-20T06:42:23;7.00;82.40
360;DHT22;168;48.872;9.226;2023-12-20T06:44:51;7.00;82.60
360;DHT22;168;48.872;9.226;2023-12-20T06:47:18;6.90;83.70
360;DHT22;168;48.872;9.226;2023-12-20T06:49:45;6.90;83.10
360;DHT22;168;48.872;9.226;2023-12-20T06:52:13;6.90;82.90
360;DHT22;168;48.872;9.226;2023-12-20T06:54:46;6.90;82.50
360;DHT22;168;48.872;9.226;2023-12-20T06:57:18;6.80;83.30
360;DHT22;168;48.872;9.226;2023-12-20T06:59:46;6.80;83.40
360;DHT22;168;48.872;9.226;2023-12-20T07:02:16;6.90;84.00
360;DHT22;168;48.872;9.226;2023-12-20T07:04:46;6.80;84.10
360;DHT22;168;48.872;9.226;2023-12-20T07:07:13;6.90;84.70
360;DHT22;168;48.872;9.226;2023-12-20T07:09:40;6.80;85.10
360;DHT22;168;48.872;9.226;2023-12-20T07:12:09;6.80;84.50
360;DHT22;168;48.872;9.226;2023-12-20T07:14:37;6.80;84.50
360;DHT22;168;48.872;9.226;2023-12-20T07:17:05;6.90;84.90
360;DHT22;168;48.872;9.226;2023-12-20T07:19:38;6.90;84.40
360;DHT22;168;48.872;9.226;2023-12-20T07:22:06;6.90;85.00
360;DHT22;168;48.872;9.226;2023-12-20T07:24:34;6.90;84.80
360;DHT22;168;48.872;9.226;2023-12-20T07:27:02;6.80;83.50
360;DHT22;168;48.872;9.226;2023-12-20T07:29:29;6.80;83.40
360;DHT22;168;48.872;9.226;2023-12-20T07:31:58;6.80;83.00
360;DHT22;168;48.872;9.226;2023-12-20T07:34:25;6.70;82.70
360;DHT22;168;48.872;9.226;2023-12-20T07:36:53;6.70;83.50
360;DHT22;168;48.872;9.226;2023-12-20T07:39:20;6.70;83.00
360;DHT22;168;48.872;9.226;2023-12-20T07:41:47;6.70;83.60
360;DHT22;168;48.872;9.226;2023-12-20T07:44:15;6.70;84.60
360;DHT22;168;48.872;9.226;2023-12-20T07:46:41;6.80;86.40
360;DHT22;168;48.872;9.226;2023-12-20T07:49:10;6.80;86.90
360;DHT22;168;48.872;9.226;2023-12-20T07:51:38;6.90;89.60
360;DHT22;168;48.872;9.226;2023-12-20T07:54:05;6.90;91.20
360;DHT22;168;48.872;9.226;2023-12-20T07:56:34;6.80;90.80
360;DHT22;168;48.872;9.226;2023-12-20T07:59:01;6.80;91.60
360;DHT22;168;48.872;9.226;2023-12-20T08:01:28;6.80;92.10
360;DHT22;168;48.872;9.226;2023-12-20T08:03:56;6.70;94.40
360;DHT22;168;48.872;9.226;2023-12-20T08:06:24;6.60;93.60
360;DHT22;168;48.872;9.226;2023-12-20T08:08:52;6.50;94.20
360;DHT22;168;48.872;9.226;2023-12-20T08:11:19;6.30;93.30
360;DHT22;168;48.872;9.226;2023-12-20T08:16:15;6.20;93.80
360;DHT22;168;48.872;9.226;2023-12-20T08:18:45;6.10;93.60
360;DHT22;168;48.872;9.226;2023-12-20T08:21:13;6.20;93.20
360;DHT22;168;48.872;9.226;2023-12-20T08:23:42;6.20;93.90
360;DHT22;168;48.872;9.226;2023-12-20T08:26:09;6.10;93.30
360;DHT22;168;48.872;9.226;2023-12-20T08:28:37;6.20;93.40
360;DHT22;168;48.872;9.226;2023-12-20T08:31:04;6.30;94.50
360;DHT22;168;48.872;9.226;2023-12-20T08:33:32;6.40;95.30
360;DHT22;168;48.872;9.226;2023-12-20T08:35:59;6.40;95.20
360;DHT22;168;48.872;9.226;2023-12-20T08:38:26;6.40;95.10
360;DHT22;168;48.872;9.226;2023-12-20T08:40:55;6.50;94.40
360;DHT22;168;48.872;9.226;2023-12-20T08:43:22;6.80;97.20
360;DHT22;168;48.872;9.226;2023-12-20T08:45:50;6.90;97.30
360;DHT22;168;48.872;9.226;2023-12-20T08:48:17;7.00;98.60
360;DHT22;168;48.872;9.226;2023-12-20T08:50:44;7.00;97.90
360;DHT22;168;48.872;9.226;2023-12-20T08:53:13;7.10;98.50
360;DHT22;168;48.872;9.226;2023-12-20T08:55:41;7.10;98.70
360;DHT22;168;48.872;9.226;2023-12-20T08:58:10;7.00;98.50
360;DHT22;168;48.872;9.226;2023-12-20T09:00:38;6.90;98.30
360;DHT22;168;48.872;9.226;2023-12-20T09:03:07;6.80;98.10
360;DHT22;168;48.872;9.226;2023-12-20T09:05:34;6.90;98.30
360;DHT22;168;48.872;9.226;2023-12-20T09:08:01;6.90;98.00
360;DHT22;168;48.872;9.226;2023-12-20T09:10:29;6.90;98.60
360;DHT22;168;48.872;9.226;2023-12-20T09:12:56;6.90;98.20
360;DHT22;168;48.872;9.226;2023-12-20T09:15:26;6.80;98.40
360;DHT22;168;48.872;9.226;2023-12-20T09:17:53;6.80;98.30
360;DHT22;168;48.872;9.226;2023-12-20T09:20:20;6.80;98.60
360;DHT22;168;48.872;9.226;2023-12-20T09:22:49;6.90;98.60
360;DHT22;168;48.872;9.226;2023-12-20T09:25:16;6.90;98.40
360;DHT22;168;48.872;9.226;2023-12-20T09:27:44;7.00;98.70
360;DHT22;168;48.872;9.226;2023-12-20T09:30:12;7.10;98.90
360;DHT22;168;48.872;9.226;2023-12-20T09:32:41;7.10;98.90
360;DHT22;168;48.872;9.226;2023-12-20T09:35:08;7.20;98.80
360;DHT22;168;48.872;9.226;2023-12-20T09:37:36;7.20;98.70
360;DHT22;168;48.872;9.226;2023-12-20T09:40:04;7.30;98.60
360;DHT22;168;48.872;9.226;2023-12-20T09:42:39;7.20;98.20
360;DHT22;168;48.872;9.226;2023-12-20T09:45:14;7.20;97.90
360;DHT22;168;48.872;9.226;2023-12-20T09:47:43;7.20;97.60
360;DHT22;168;48.872;9.226;2023-12-20T09:50:11;7.30;97.40
360;DHT22;168;48.872;9.226;2023-12-20T09:52:40;7.30;97.00
360;DHT22;168;48.872;9.226;2023-12-20T09:55:08;7.30;96.00
360;DHT22;168;48.872;9.226;2023-12-20T09:57:36;7.40;96.00
360;DHT22;168;48.872;9.226;2023-12-20T10:00:05;7.40;95.30
360;DHT22;168;48.872;9.226;2023-12-20T10:02:33;7.50;94.80
360;DHT22;168;48.872;9.226;2023-12-20T10:05:06;7.50;93.70
360;DHT22;168;48.872;9.226;2023-12-20T10:07:35;7.40;94.30
360;DHT22;168;48.872;9.226;2023-12-20T10:10:03;7.40;93.70
360;DHT22;168;48.872;9.226;2023-12-20T10:12:31;7.50;93.30
360;DHT22;168;48.872;9.226;2023-12-20T10:14:58;7.40;93.20
360;DHT22;168;48.872;9.226;2023-12-20T10:17:27;7.40;93.40
360;DHT22;168;48.872;9.226;2023-12-20T10:19:56;7.50;93.70
360;DHT22;168;48.872;9.226;2023-12-20T10:22:26;7.60;93.60
360;DHT22;168;48.872;9.226;2023-12-20T10:24:56;7.70;92.40
360;DHT22;168;48.872;9.226;2023-12-20T10:27:23;7.70;91.50
360;DHT22;168;48.872;9.226;2023-12-20T10:29:51;7.80;92.60
360;DHT22;168;48.872;9.226;2023-12-20T10:32:23;7.70;92.20
360;DHT22;168;48.872;9.226;2023-12-20T10:34:51;7.70;92.40
360;DHT22;168;48.872;9.226;2023-12-20T10:37:18;7.70;91.30
360;DHT22;168;48.872;9.226;2023-12-20T10:39:49;7.60;92.10
360;DHT22;168;48.872;9.226;2023-12-20T10:42:18;7.60;93.00
360;DHT22;168;48.872;9.226;2023-12-20T10:44:47;7.70;92.00
360;DHT22;168;48.872;9.226;2023-12-20T10:47:15;7.70;91.30
360;DHT22;168;48.872;9.226;2023-12-20T10:49:43;7.80;92.30
360;DHT22;168;48.872;9.226;2023-12-20T10:52:12;7.90;91.20
360;DHT22;168;48.872;9.226;2023-12-20T10:54:40;8.10;90.80
360;DHT22;168;48.872;9.226;2023-12-20T10:57:08;8.20;89.60
360;DHT22;168;48.872;9.226;2023-12-20T10:59:37;8.00;88.80
360;DHT22;168;48.872;9.226;2023-12-20T11:02:05;8.00;88.70
360;DHT22;168;48.872;9.226;2023-12-20T11:04:39;8.00;89.00
360;DHT22;168;48.872;9.226;2023-12-20T11:07:17;8.20;88.40
360;DHT22;168;48.872;9.226;2023-12-20T11:09:52;8.30;85.50
360;DHT22;168;48.872;9.226;2023-12-20T11:12:32;8.30;85.60
360;DHT22;168;48.872;9.226;2023-12-20T11:15:03;8.30;85.70
360;DHT22;168;48.872;9.226;2023-12-20T11:17:32;8.30;85.90
360;DHT22;168;48.872;9.226;2023-12-20T11:20:05;8.30;83.30
360;DHT22;168;48.872;9.226;2023-12-20T11:22:34;8.10;83.10
360;DHT22;168;48.872;9.226;2023-12-20T11:25:04;8.10;83.90
360;DHT22;168;48.872;9.226;2023-12-20T11:27:34;7.90;84.60
360;DHT22;168;48.872;9.226;2023-12-20T11:30:03;7.90;85.30
360;DHT22;168;48.872;9.226;2023-12-20T11:32:34;7.90;85.50
360;DHT22;168;48.872;9.226;2023-12-20T11:35:17;8.00;86.80
360;DHT22;168;48.872;9.226;2023-12-20T11:37:45;8.00;86.20
360;DHT22;168;48.872;9.226;2023-12-20T11:40:15;7.90;86.70
360;DHT22;168;48.872;9.226;2023-12-20T11:42:48;7.70;88.60
360;DHT22;168;48.872;9.226;2023-12-20T11:45:17;7.70;89.50
360;DHT22;168;48.872;9.226;2023-12-20T11:47:48;7.60;88.60
360;DHT22;168;48.872;9.226;2023-12-20T11:50:16;7.60;89.00
360;DHT22;168;48.872;9.226;2023-12-20T11:52:43;7.60;89.60
360;DHT22;168;48.872;9.226;2023-12-20T11:55:11;7.70;90.00
360;DHT22;168;48.872;9.226;2023-12-20T11:57:38;7.60;89.30
360;DHT22;168;48.872;9.226;2023-12-20T12:00:08;7.70;89.60
360;DHT22;168;48.872;9.226;2023-12-20T12:02:36;7.60;88.50
360;DHT22;168;48.872;9.226;2023-12-20T12:05:04;7.60;89.40
360;DHT22;168;48.872;9.226;2023-12-20T12:07:33;7.70;89.60
360;DHT22;168;48.872;9.226;2023-12-20T12:10:00;7.80;88.10
360;DHT22;168;48.872;9.226;2023-12-20T12:12:29;7.80;87.40
360;DHT22;168;48.872;9.226;2023-12-20T12:14:58;7.80;87.10
360;DHT22;168;48.872;9.226;2023-12-20T12:17:27;7.80;86.60
360;DHT22;168;48.872;9.226;2023-12-20T12:20:03;7.80;86.90
360;DHT22;168;48.872;9.226;2023-12-20T12:22:31;7.90;87.50
360;DHT22;168;48.872;9.226;2023-12-20T12:24:59;8.00;86.90
360;DHT22;168;48.872;9.226;2023-12-20T12:27:36;8.10;86.80
360;DHT22;168;48.872;9.226;2023-12-20T12:30:05;8.30;86.60
360;DHT22;168;48.872;9.226;2023-12-20T12:32:35;8.40;85.70
360;DHT22;168;48.872;9.226;2023-12-20T12:35:03;8.50;84.70
360;DHT22;168;48.872;9.226;2023-12-20T12:37:34;8.60;83.40
360;DHT22;168;48.872;9.226;2023-12-20T12:40:04;8.60;84.20
360;DHT22;168;48.872;9.226;2023-12-20T12:42:32;8.80;83.80
360;DHT22;168;48.872;9.226;2023-12-20T12:44:59;8.70;83.40
360;DHT22;168;48.872;9.226;2023-12-20T12:47:26;8.70;84.40
360;DHT22;168;48.872;9.226;2023-12-20T12:49:55;8.70;84.40
360;DHT22;168;48.872;9.226;2023-12-20T12:52:22;8.60;84.50
360;DHT22;168;48.872;9.226;2023-12-20T12:54:50;8.50;83.90
360;DHT22;168;48.872;9.226;2023-12-20T12:57:17;8.40;84.90
360;DHT22;168;48.872;9.226;2023-12-20T12:59:45;8.30;85.30
360;DHT22;168;48.872;9.226;2023-12-20T13:02:13;8.20;85.70
360;DHT22;168;48.872;9.226;2023-12-20T13:04:41;8.20;86.20
360;DHT22;168;48.872;9.226;2023-12-20T13:07:10;8.20;86.80
360;DHT22;168;48.872;9.226;2023-12-20T13:09:38;8.10;86.20
360;DHT22;168;48.872;9.226;2023-12-20T13:12:06;8.00;86.60
360;DHT22;168;48.872;9.226;2023-12-20T13:14:34;7.80;87.00
360;DHT22;168;48.872;9.226;2023-12-20T13:17:03;7.80;87.20
360;DHT22;168;48.872;9.226;2023-12-20T13:19:30;7.90;86.70
360;DHT22;168;48.872;9.226;2023-12-20T13:21:58;7.90;86.60
360;DHT22;168;48.872;9.226;2023-12-20T13:24:27;7.80;86.80
360;DHT22;168;48.872;9.226;2023-12-20T13:27:06;7.90;86.00
360;DHT22;168;48.872;9.226;2023-12-20T13:29:35;7.80;86.90
360;DHT22;168;48.872;9.226;2023-12-20T13:32:02;7.80;87.20
360;DHT22;168;48.872;9.226;2023-12-20T13:34:30;7.80;87.60
360;DHT22;168;48.872;9.226;2023-12-20T13:36:58;7.90;87.70
360;DHT22;168;48.872;9.226;2023-12-20T13:39:26;8.00;87.30
360;DHT22;168;48.872;9.226;2023-12-20T13:41:54;8.00;87.50
360;DHT22;168;48.872;9.226;2023-12-20T13:44:21;8.00;87.30
360;DHT22;168;48.872;9.226;2023-12-20T13:46:48;7.90;87.60
360;DHT22;168;48.872;9.226;2023-12-20T13:49:16;7.80;88.50
360;DHT22;168;48.872;9.226;2023-12-20T13:51:44;7.70;88.80
360;DHT22;168;48.872;9.226;2023-12-20T13:54:11;7.60;89.20
360;DHT22;168;48.872;9.226;2023-12-20T13:56:40;7.50;89.60
360;DHT22;168;48.872;9.226;2023-12-20T13:59:07;7.40;90.40
360;DHT22;168;48.872;9.226;2023-12-20T14:01:34;7.30;90.60
360;DHT22;168;48.872;9.226;2023-12-20T14:04:02;7.30;91.00
360;DHT22;168;48.872;9.226;2023-12-20T14:06:29;7.30;91.10
360;DHT22;168;48.872;9.226;2023-12-20T14:08:57;7.40;91.90
360;DHT22;168;48.872;9.226;2023-12-20T14:11:26;7.50;92.90
360;DHT22;168;48.872;9.226;2023-12-20T14:16:32;7.50;92.30
360;DHT22;168;48.872;9.226;2023-12-20T14:18:59;7.60;92.10
360;DHT22;168;48.872;9.226;2023-12-20T14:21:29;7.70;91.60
360;DHT22;168;48.872;9.226;2023-12-20T14:23:56;7.60;91.40
360;DHT22;168;48.872;9.226;2023-12-20T14:26:24;7.60;92.10
360;DHT22;168;48.872;9.226;2023-12-20T14:28:53;7.60;92.40
360;DHT22;168;48.872;9.226;2023-12-20T14:31:21;7.60;93.00
360;DHT22;168;48.872;9.226;2023-12-20T14:33:52;7.60;93.40
360;DHT22;168;48.872;9.226;2023-12-20T14:36:21;7.60;94.10
360;DHT22;168;48.872;9.226;2023-12-20T14:38:48;7.50;94.40
360;DHT22;168;48.872;9.226;2023-12-20T14:41:17;7.40;94.80
360;DHT22;168;48.872;9.226;2023-12-20T14:43:45;7.40;94.90
360;DHT22;168;48.872;9.226;2023-12-20T14:46:12;7.50;95.30
360;DHT22;168;48.872;9.226;2023-12-20T14:48:41;7.40;94.60
360;DHT22;168;48.872;9.226;2023-12-20T14:51:10;7.40;95.10
360;DHT22;168;48.872;9.226;2023-12-20T14:53:37;7.40;95.00
360;DHT22;168;48.872;9.226;2023-12-20T14:56:05;7.50;95.00
360;DHT22;168;48.872;9.226;2023-12-20T14:58:33;7.40;95.10
360;DHT22;168;48.872;9.226;2023-12-20T15:01:01;7.40;95.40
360;DHT22;168;48.872;9.226;2023-12-20T15:03:29;7.30;95.80
360;DHT22;168;48.872;9.226;2023-12-20T15:05:56;7.30;96.30
360;DHT22;168;48.872;9.226;2023-12-20T15:08:26;7.20;96.70
360;DHT22;168;48.872;9.226;2023-12-20T15:10:53;7.10;97.00
360;DHT22;168;48.872;9.226;2023-12-20T15:13:21;7.00;97.70
360;DHT22;168;48.872;9.226;2023-12-20T15:15:48;7.00;97.70
360;DHT22;168;48.872;9.226;2023-12-20T15:18:15;6.90;98.10
360;DHT22;168;48.872;9.226;2023-12-20T15:20:43;6.90;98.30
360;DHT22;168;48.872;9.226;2023-12-20T15:23:11;6.90;98.40
360;DHT22;168;48.872;9.226;2023-12-20T15:25:40;6.90;98.40
360;DHT22;168;48.872;9.226;2023-12-20T15:28:07;6.90;98.60
360;DHT22;168;48.872;9.226;2023-12-20T15:30:35;6.90;98.50
360;DHT22;168;48.872;9.226;2023-12-20T15:33:02;7.00;98.60
360;DHT22;168;48.872;9.226;2023-12-20T15:35:30;7.10;98.80
360;DHT22;168;48.872;9.226;2023-12-20T15:37:57;7.10;98.60
360;DHT22;168;48.872;9.226;2023-12-20T15:40:25;7.10;98.50
360;DHT22;168;48.872;9.226;2023-12-20T15:42:54;7.00;98.50
360;DHT22;168;48.872;9.226;2023-12-20T15:45:21;7.00;98.60
360;DHT22;168;48.872;9.226;2023-12-20T15:47:49;7.10;98.00
360;DHT22;168;48.872;9.226;2023-12-20T15:50:16;7.10;98.00
360;DHT22;168;48.872;9.226;2023-12-20T15:52:43;7.10;98.40
360;DHT22;168;48.872;9.226;2023-12-20T15:55:11;7.20;97.80
360;DHT22;168;48.872;9.226;2023-12-20T15:57:38;7.20;97.80
360;DHT22;168;48.872;9.226;2023-12-20T16:00:08;7.30;97.30
360;DHT22;168;48.872;9.226;2023-12-20T16:02:37;7.30;97.10
360;DHT22;168;48.872;9.226;2023-12-20T16:05:05;7.30;97.10
360;DHT22;168;48.872;9.226;2023-12-20T16:07:33;7.20;96.40
360;DHT22;168;48.872;9.226;2023-12-20T16:10:01;7.10;96.80
360;DHT22;168;48.872;9.226;2023-12-20T16:12:28;7.10;97.00
360;DHT22;168;48.872;9.226;2023-12-20T16:14:56;7.10;97.00
360;DHT22;168;48.872;9.226;2023-12-20T16:17:24;7.10;96.80
360;DHT22;168;48.872;9.226;2023-12-20T16:19:52;7.10;96.70
360;DHT22;168;48.872;9.226;2023-12-20T16:22:19;7.20;96.10
360;DHT22;168;48.872;9.226;2023-12-20T16:24:46;7.30;95.90
360;DHT22;168;48.872;9.226;2023-12-20T16:27:14;7.30;95.60
360;DHT22;168;48.872;9.226;2023-12-20T16:29:41;7.30;95.80
360;DHT22;168;48.872;9.226;2023-12-20T16:32:09;7.30;96.50
360;DHT22;168;48.872;9.226;2023-12-20T16:34:38;7.40;96.00
360;DHT22;168;48.872;9.226;2023-12-20T16:37:05;7.40;95.60
360;DHT22;168;48.872;9.226;2023-12-20T16:39:33;7.50;95.70
360;DHT22;168;48.872;9.226;2023-12-20T16:42:01;7.50;95.70
360;DHT22;168;48.872;9.226;2023-12-20T16:44:28;7.50;95.80
360;DHT22;168;48.872;9.226;2023-12-20T16:46:56;7.50;95.40
360;DHT22;168;48.872;9.226;2023-12-20T16:49:23;7.40;96.10
360;DHT22;168;48.872;9.226;2023-12-20T16:51:52;7.40;96.30
360;DHT22;168;48.872;9.226;2023-12-20T16:54:19;7.50;95.60
360;DHT22;168;48.872;9.226;2023-12-20T16:56:47;7.50;95.80
360;DHT22;168;48.872;9.226;2023-12-20T16:59:14;7.50;95.50
360;DHT22;168;48.872;9.226;2023-12-20T17:01:42;7.40;95.70